createdAt,value
2022-07-29T00:00:01.088Z,96112.00
2022-07-29T00:00:11.089Z,96108.00
2022-07-29T00:00:21.079Z,96110.00
2022-07-29T00:00:31.079Z,96110.00
2022-07-29T00:00:41.082Z,96110.00
2022-07-29T00:00:51.088Z,96110.00
2022-07-29T00:01:01.080Z,96104.00
2022-07-29T00:01:19.503Z,96108.00
2022-07-29T00:01:21.389Z,96106.00
2022-07-29T00:01:31.408Z,96108.00
2022-07-29T00:01:41.383Z,96106.00
2022-07-29T00:01:51.390Z,96104.00
2022-07-29T00:02:01.401Z,96106.00
2022-07-29T00:02:11.390Z,96104.00
2022-07-29T00:02:21.466Z,96104.00
2022-07-29T00:02:31.426Z,96104.00
2022-07-29T00:02:41.497Z,96106.00
2022-07-29T00:02:51.450Z,96106.00
2022-07-29T00:03:01.438Z,96106.00
2022-07-29T00:03:11.415Z,96104.00
2022-07-29T00:03:21.432Z,96104.00
2022-07-29T00:03:31.486Z,96104.00
2022-07-29T00:03:41.407Z,96104.00
2022-07-29T00:03:51.454Z,96104.00
2022-07-29T00:04:01.467Z,96106.00
2022-07-29T00:04:11.492Z,96104.00
2022-07-29T00:04:21.952Z,96108.00
2022-07-29T00:04:31.449Z,96104.00
2022-07-29T00:04:41.416Z,96102.00
2022-07-29T00:04:51.372Z,96108.00
2022-07-29T00:05:01.381Z,96104.00
2022-07-29T00:05:11.374Z,96102.00
2022-07-29T00:05:21.372Z,96102.00
2022-07-29T00:05:31.369Z,96106.00
2022-07-29T00:05:41.372Z,96102.00
2022-07-29T00:05:51.373Z,96104.00
2022-07-29T00:06:01.372Z,96104.00
2022-07-29T00:06:11.371Z,96106.00
2022-07-29T00:06:21.372Z,96106.00
2022-07-29T00:06:31.372Z,96108.00
2022-07-29T00:06:41.400Z,96110.00
2022-07-29T00:06:51.372Z,96104.00
2022-07-29T00:07:01.371Z,96106.00
2022-07-29T00:07:11.402Z,96102.00
2022-07-29T00:07:21.372Z,96104.00
2022-07-29T00:07:31.370Z,96106.00
2022-07-29T00:07:41.373Z,96104.00
2022-07-29T00:07:51.382Z,96104.00
2022-07-29T00:08:01.397Z,96102.00
2022-07-29T00:08:12.731Z,96102.00
2022-07-29T00:08:21.362Z,96108.00
2022-07-29T00:08:31.362Z,96106.00
2022-07-29T00:08:41.353Z,96106.00
2022-07-29T00:08:51.361Z,96106.00
2022-07-29T00:09:01.365Z,96106.00
2022-07-29T00:09:11.379Z,96104.00
2022-07-29T00:09:21.364Z,96104.00
2022-07-29T00:09:31.383Z,96106.00
2022-07-29T00:09:51.238Z,96104.00
2022-07-29T00:09:52.687Z,96102.00
2022-07-29T00:10:01.352Z,96100.00
2022-07-29T00:10:11.358Z,96102.00
2022-07-29T00:10:21.363Z,96102.00
2022-07-29T00:10:31.357Z,96106.00
2022-07-29T00:10:41.364Z,96106.00
2022-07-29T00:10:52.811Z,96104.00
2022-07-29T00:11:01.363Z,96108.00
2022-07-29T00:11:11.408Z,96104.00
2022-07-29T00:11:21.354Z,96104.00
2022-07-29T00:11:31.344Z,96102.00
2022-07-29T00:11:41.353Z,96106.00
2022-07-29T00:11:51.387Z,96104.00
2022-07-29T00:12:01.373Z,96106.00
2022-07-29T00:12:11.364Z,96104.00
2022-07-29T00:12:26.289Z,96106.00
2022-07-29T00:12:31.359Z,96102.00
2022-07-29T00:12:41.344Z,96102.00
2022-07-29T00:12:51.345Z,96102.00
2022-07-29T00:13:01.346Z,96102.00
2022-07-29T00:13:11.345Z,96100.00
2022-07-29T00:13:32.418Z,96098.00
2022-07-29T00:13:32.456Z,96102.00
2022-07-29T00:13:41.344Z,96098.00
2022-07-29T00:13:51.344Z,96102.00
2022-07-29T00:14:01.344Z,96098.00
2022-07-29T00:14:11.371Z,96096.00
2022-07-29T00:14:21.374Z,96098.00
2022-07-29T00:14:31.348Z,96098.00
2022-07-29T00:14:41.345Z,96098.00
2022-07-29T00:14:51.344Z,96100.00
2022-07-29T00:15:01.346Z,96098.00
2022-07-29T00:15:11.344Z,96098.00
2022-07-29T00:15:21.345Z,96098.00
2022-07-29T00:15:31.337Z,96098.00
2022-07-29T00:15:41.344Z,96096.00
2022-07-29T00:15:51.346Z,96096.00
2022-07-29T00:16:04.870Z,96096.00
2022-07-29T00:16:11.382Z,96100.00
2022-07-29T00:16:21.460Z,96098.00
2022-07-29T00:16:31.391Z,96094.00
2022-07-29T00:16:41.378Z,96094.00
2022-07-29T00:16:51.407Z,96094.00
2022-07-29T00:17:01.356Z,96098.00
2022-07-29T00:17:11.337Z,96094.00
2022-07-29T00:17:21.341Z,96094.00
2022-07-29T00:17:31.357Z,96094.00
2022-07-29T00:17:41.336Z,96094.00
2022-07-29T00:17:51.336Z,96092.00
2022-07-29T00:18:01.337Z,96092.00
2022-07-29T00:18:11.340Z,96092.00
2022-07-29T00:18:21.338Z,96092.00
2022-07-29T00:18:31.348Z,96091.00
2022-07-29T00:18:41.339Z,96091.00
2022-07-29T00:18:51.327Z,96091.00
2022-07-29T00:19:02.411Z,96089.00
2022-07-29T00:19:11.337Z,96091.00
2022-07-29T00:19:21.341Z,96089.00
2022-07-29T00:19:31.339Z,96089.00
2022-07-29T00:19:45.466Z,96091.00
2022-07-29T00:19:51.336Z,96089.00
2022-07-29T00:20:01.328Z,96085.00
2022-07-29T00:20:11.333Z,96087.00
2022-07-29T00:20:21.332Z,96089.00
2022-07-29T00:20:31.345Z,96091.00
2022-07-29T00:20:41.347Z,96091.00
2022-07-29T00:20:52.770Z,96087.00
2022-07-29T00:21:01.328Z,96091.00
2022-07-29T00:21:11.747Z,96089.00
2022-07-29T00:21:21.327Z,96091.00
2022-07-29T00:21:31.327Z,96091.00
2022-07-29T00:21:41.761Z,96089.00
2022-07-29T00:21:51.328Z,96091.00
2022-07-29T00:22:01.326Z,96091.00
2022-07-29T00:22:11.349Z,96089.00
2022-07-29T00:22:21.325Z,96092.00
2022-07-29T00:22:31.328Z,96089.00
2022-07-29T00:22:41.349Z,96092.00
2022-07-29T00:22:51.348Z,96089.00
2022-07-29T00:23:01.318Z,96091.00
2022-07-29T00:23:13.621Z,96091.00
2022-07-29T00:23:21.528Z,96091.00
2022-07-29T00:23:33.792Z,96094.00
2022-07-29T00:23:41.528Z,96092.00
2022-07-29T00:23:51.529Z,96091.00
2022-07-29T00:24:01.534Z,96094.00
2022-07-29T00:24:11.653Z,96094.00
2022-07-29T00:24:21.520Z,96096.00
2022-07-29T00:24:31.520Z,96092.00
2022-07-29T00:24:41.527Z,96094.00
2022-07-29T00:24:51.727Z,96094.00
2022-07-29T00:25:01.520Z,96094.00
2022-07-29T00:25:11.510Z,96094.00
2022-07-29T00:25:21.519Z,96092.00
2022-07-29T00:25:31.649Z,96096.00
2022-07-29T00:25:41.641Z,96092.00
2022-07-29T00:25:51.640Z,96094.00
2022-07-29T00:26:01.639Z,96096.00
2022-07-29T00:26:11.640Z,96098.00
2022-07-29T00:26:21.642Z,96098.00
2022-07-29T00:26:31.650Z,96100.00
2022-07-29T00:26:41.660Z,96098.00
2022-07-29T00:26:51.683Z,96098.00
2022-07-29T00:27:01.643Z,96100.00
2022-07-29T00:27:11.641Z,96100.00
2022-07-29T00:27:21.660Z,96102.00
2022-07-29T00:27:31.760Z,96102.00
2022-07-29T00:27:41.641Z,96102.00
2022-07-29T00:27:51.649Z,96104.00
2022-07-29T00:28:01.631Z,96104.00
2022-07-29T00:28:11.638Z,96106.00
2022-07-29T00:28:21.635Z,96102.00
2022-07-29T00:28:31.632Z,96104.00
2022-07-29T00:28:41.631Z,96102.00
2022-07-29T00:28:51.640Z,96102.00
2022-07-29T00:29:32.443Z,96106.00
2022-07-29T00:29:33.465Z,96108.00
2022-07-29T00:29:34.001Z,96104.00
2022-07-29T00:29:37.113Z,96108.00
2022-07-29T00:29:41.631Z,96108.00
2022-07-29T00:29:51.644Z,96104.00
2022-07-29T00:30:01.644Z,96104.00
2022-07-29T00:30:11.631Z,96106.00
2022-07-29T00:30:21.633Z,96102.00
2022-07-29T00:30:31.632Z,96106.00
2022-07-29T00:30:41.633Z,96104.00
2022-07-29T00:30:53.072Z,96102.00
2022-07-29T00:31:01.729Z,96102.00
2022-07-29T00:31:13.138Z,96102.00
2022-07-29T00:31:21.684Z,96102.00
2022-07-29T00:31:31.687Z,96100.00
2022-07-29T00:31:41.685Z,96100.00
2022-07-29T00:31:51.692Z,96098.00
2022-07-29T00:32:01.759Z,96096.00
2022-07-29T00:32:11.624Z,96096.00
2022-07-29T00:32:21.625Z,96094.00
2022-07-29T00:32:31.642Z,96094.00
2022-07-29T00:32:41.623Z,96094.00
2022-07-29T00:32:51.634Z,96096.00
2022-07-29T00:33:01.706Z,96094.00
2022-07-29T00:33:11.632Z,96096.00
2022-07-29T00:33:21.621Z,96092.00
2022-07-29T00:33:31.622Z,96092.00
2022-07-29T00:33:41.612Z,96092.00
2022-07-29T00:33:51.632Z,96098.00
2022-07-29T00:34:01.621Z,96091.00
2022-07-29T00:34:11.636Z,96096.00
2022-07-29T00:34:21.634Z,96096.00
2022-07-29T00:34:31.622Z,96098.00
2022-07-29T00:34:41.627Z,96091.00
2022-07-29T00:34:51.636Z,96094.00
2022-07-29T00:35:01.623Z,96094.00
2022-07-29T00:35:11.615Z,96092.00
2022-07-29T00:35:21.625Z,96094.00
2022-07-29T00:35:31.614Z,96092.00
2022-07-29T00:35:41.614Z,96094.00
2022-07-29T00:35:51.620Z,96092.00
2022-07-29T00:36:01.617Z,96092.00
2022-07-29T00:36:11.624Z,96092.00
2022-07-29T00:36:21.625Z,96092.00
2022-07-29T00:36:31.615Z,96092.00
2022-07-29T00:36:41.614Z,96092.00
2022-07-29T00:36:51.606Z,96092.00
2022-07-29T00:37:01.614Z,96091.00
2022-07-29T00:37:11.605Z,96094.00
2022-07-29T00:37:21.615Z,96092.00
2022-07-29T00:37:31.614Z,96092.00
2022-07-29T00:37:41.636Z,96091.00
2022-07-29T00:37:51.615Z,96091.00
2022-07-29T00:38:02.141Z,96091.00
2022-07-29T00:38:11.655Z,96089.00
2022-07-29T00:38:21.614Z,96087.00
2022-07-29T00:38:31.607Z,96089.00
2022-07-29T00:38:41.605Z,96089.00
2022-07-29T00:38:51.607Z,96087.00
2022-07-29T00:39:01.605Z,96092.00
2022-07-29T00:39:11.598Z,96087.00
2022-07-29T00:39:21.615Z,96092.00
2022-07-29T00:39:31.604Z,96089.00
2022-07-29T00:39:41.596Z,96089.00
2022-07-29T00:39:51.605Z,96089.00
2022-07-29T00:40:01.606Z,96089.00
2022-07-29T00:40:11.596Z,96087.00
2022-07-29T00:40:23.567Z,96087.00
2022-07-29T00:40:31.627Z,96085.00
2022-07-29T00:40:43.273Z,96085.00
2022-07-29T00:40:53.076Z,96085.00
2022-07-29T00:41:01.608Z,96085.00
2022-07-29T00:41:11.736Z,96085.00
2022-07-29T00:41:21.609Z,96085.00
2022-07-29T00:41:31.597Z,96085.00
2022-07-29T00:41:41.657Z,96085.00
2022-07-29T00:41:51.659Z,96083.00
2022-07-29T00:42:01.776Z,96085.00
2022-07-29T00:42:11.656Z,96085.00
2022-07-29T00:42:21.647Z,96083.00
2022-07-29T00:42:31.647Z,96085.00
2022-07-29T00:42:41.679Z,96085.00
2022-07-29T00:42:52.667Z,96081.00
2022-07-29T00:43:01.657Z,96085.00
2022-07-29T00:43:11.647Z,96083.00
2022-07-29T00:43:21.667Z,96087.00
2022-07-29T00:43:31.638Z,96087.00
2022-07-29T00:43:41.638Z,96087.00
2022-07-29T00:43:51.640Z,96085.00
2022-07-29T00:44:01.648Z,96085.00
2022-07-29T00:44:11.787Z,96085.00
2022-07-29T00:44:21.648Z,96083.00
2022-07-29T00:44:31.637Z,96081.00
2022-07-29T00:44:41.649Z,96083.00
2022-07-29T00:44:51.648Z,96083.00
2022-07-29T00:45:01.647Z,96083.00
2022-07-29T00:45:11.657Z,96081.00
2022-07-29T00:45:21.648Z,96085.00
2022-07-29T00:45:31.668Z,96081.00
2022-07-29T00:45:41.659Z,96085.00
2022-07-29T00:45:53.088Z,96083.00
2022-07-29T00:46:01.640Z,96083.00
2022-07-29T00:46:11.691Z,96085.00
2022-07-29T00:46:21.691Z,96087.00
2022-07-29T00:46:31.676Z,96089.00
2022-07-29T00:46:41.686Z,96087.00
2022-07-29T00:46:51.689Z,96089.00
2022-07-29T00:47:01.699Z,96089.00
2022-07-29T00:47:11.759Z,96089.00
2022-07-29T00:47:21.630Z,96089.00
2022-07-29T00:47:33.078Z,96089.00
2022-07-29T00:47:41.789Z,96089.00
2022-07-29T00:47:52.171Z,96087.00
2022-07-29T00:48:01.639Z,96085.00
2022-07-29T00:48:11.648Z,96087.00
2022-07-29T00:48:21.637Z,96087.00
2022-07-29T00:48:31.669Z,96087.00
2022-07-29T00:48:41.665Z,96085.00
2022-07-29T00:48:51.693Z,96085.00
2022-07-29T00:49:01.699Z,96083.00
2022-07-29T00:49:11.728Z,96085.00
2022-07-29T00:49:21.726Z,96085.00
2022-07-29T00:49:31.630Z,96085.00
2022-07-29T00:49:41.650Z,96085.00
2022-07-29T00:49:51.630Z,96083.00
2022-07-29T00:50:01.630Z,96085.00
2022-07-29T00:50:11.633Z,96085.00
2022-07-29T00:50:21.623Z,96083.00
2022-07-29T00:50:31.630Z,96085.00
2022-07-29T00:50:41.621Z,96085.00
2022-07-29T00:50:51.630Z,96085.00
2022-07-29T00:51:01.624Z,96085.00
2022-07-29T00:51:13.070Z,96085.00
2022-07-29T00:51:21.630Z,96083.00
2022-07-29T00:51:31.634Z,96087.00
2022-07-29T00:51:41.621Z,96085.00
2022-07-29T00:51:53.072Z,96087.00
2022-07-29T00:52:01.620Z,96087.00
2022-07-29T00:52:11.621Z,96085.00
2022-07-29T00:52:21.613Z,96081.00
2022-07-29T00:52:31.620Z,96081.00
2022-07-29T00:52:41.612Z,96083.00
2022-07-29T00:52:51.623Z,96083.00
2022-07-29T00:53:01.643Z,96083.00
2022-07-29T00:53:11.612Z,96083.00
2022-07-29T00:53:21.612Z,96085.00
2022-07-29T00:53:31.623Z,96085.00
2022-07-29T00:53:41.622Z,96081.00
2022-07-29T00:53:51.611Z,96085.00
2022-07-29T00:54:01.612Z,96083.00
2022-07-29T00:54:11.717Z,96083.00
2022-07-29T00:54:21.603Z,96081.00
2022-07-29T00:54:31.619Z,96083.00
2022-07-29T00:54:44.390Z,96083.00
2022-07-29T00:54:51.612Z,96083.00
2022-07-29T00:55:06.360Z,96081.00
2022-07-29T00:55:11.613Z,96081.00
2022-07-29T00:55:21.612Z,96081.00
2022-07-29T00:55:31.612Z,96081.00
2022-07-29T00:55:41.612Z,96081.00
2022-07-29T00:55:51.614Z,96081.00
2022-07-29T00:56:01.620Z,96079.00
2022-07-29T00:56:11.624Z,96079.00
2022-07-29T00:56:21.603Z,96079.00
2022-07-29T00:56:31.622Z,96077.00
2022-07-29T00:56:41.602Z,96079.00
2022-07-29T00:56:51.602Z,96079.00
2022-07-29T00:57:01.602Z,96079.00
2022-07-29T00:57:11.615Z,96079.00
2022-07-29T00:57:21.603Z,96079.00
2022-07-29T00:57:31.604Z,96079.00
2022-07-29T00:57:41.613Z,96081.00
2022-07-29T00:57:51.604Z,96081.00
2022-07-29T00:58:01.623Z,96083.00
2022-07-29T00:58:11.604Z,96083.00
2022-07-29T00:58:21.594Z,96081.00
2022-07-29T00:58:31.603Z,96085.00
2022-07-29T00:58:41.603Z,96087.00
2022-07-29T00:58:51.660Z,96085.00
2022-07-29T00:59:01.594Z,96081.00
2022-07-29T00:59:11.592Z,96081.00
2022-07-29T00:59:21.596Z,96083.00
2022-07-29T00:59:34.409Z,96081.00
2022-07-29T00:59:41.595Z,96081.00
2022-07-29T00:59:51.594Z,96081.00
2022-07-29T01:00:01.595Z,96083.00
2022-07-29T01:00:11.593Z,96079.00
2022-07-29T01:00:21.598Z,96079.00
2022-07-29T01:00:31.728Z,96081.00
2022-07-29T01:00:41.681Z,96077.00
2022-07-29T01:00:51.682Z,96081.00
2022-07-29T01:01:01.658Z,96077.00
2022-07-29T01:01:11.639Z,96079.00
2022-07-29T01:01:21.677Z,96077.00
2022-07-29T01:01:31.594Z,96079.00
2022-07-29T01:01:41.656Z,96079.00
2022-07-29T01:01:51.629Z,96077.00
2022-07-29T01:02:01.673Z,96079.00
2022-07-29T01:02:11.668Z,96077.00
2022-07-29T01:02:21.635Z,96077.00
2022-07-29T01:02:31.673Z,96075.00
2022-07-29T01:02:41.586Z,96077.00
2022-07-29T01:02:51.596Z,96075.00
2022-07-29T01:03:01.595Z,96077.00
2022-07-29T01:03:11.615Z,96077.00
2022-07-29T01:03:21.604Z,96081.00
2022-07-29T01:03:31.597Z,96079.00
2022-07-29T01:03:41.594Z,96079.00
2022-07-29T01:03:51.587Z,96077.00
2022-07-29T01:04:01.596Z,96075.00
2022-07-29T01:04:11.580Z,96075.00
2022-07-29T01:04:21.576Z,96073.00
2022-07-29T01:04:32.619Z,96073.00
2022-07-29T01:04:41.622Z,96071.00
2022-07-29T01:04:51.587Z,96077.00
2022-07-29T01:05:01.587Z,96071.00
2022-07-29T01:05:11.586Z,96071.00
2022-07-29T01:05:21.586Z,96071.00
2022-07-29T01:05:48.246Z,96073.00
2022-07-29T01:05:49.940Z,96073.00
2022-07-29T01:05:52.089Z,96077.00
2022-07-29T01:06:01.577Z,96073.00
2022-07-29T01:06:11.577Z,96073.00
2022-07-29T01:06:21.576Z,96075.00
2022-07-29T01:06:31.578Z,96073.00
2022-07-29T01:06:41.567Z,96073.00
2022-07-29T01:06:51.577Z,96073.00
2022-07-29T01:07:01.580Z,96073.00
2022-07-29T01:07:11.567Z,96071.00
2022-07-29T01:07:21.575Z,96075.00
2022-07-29T01:07:31.577Z,96073.00
2022-07-29T01:07:41.578Z,96073.00
2022-07-29T01:07:51.568Z,96073.00
2022-07-29T01:08:01.567Z,96073.00
2022-07-29T01:08:11.568Z,96075.00
2022-07-29T01:08:21.597Z,96075.00
2022-07-29T01:08:31.571Z,96075.00
2022-07-29T01:08:41.570Z,96075.00
2022-07-29T01:08:51.578Z,96073.00
2022-07-29T01:09:01.570Z,96073.00
2022-07-29T01:09:11.578Z,96077.00
2022-07-29T01:09:34.465Z,96075.00
2022-07-29T01:09:43.181Z,96071.00
2022-07-29T01:09:45.500Z,96073.00
2022-07-29T01:09:51.580Z,96071.00
2022-07-29T01:10:01.575Z,96073.00
2022-07-29T01:10:11.559Z,96069.00
2022-07-29T01:10:21.559Z,96071.00
2022-07-29T01:10:31.558Z,96069.00
2022-07-29T01:10:41.578Z,96067.00
2022-07-29T01:10:51.611Z,96067.00
2022-07-29T01:11:01.561Z,96071.00
2022-07-29T01:11:11.559Z,96069.00
2022-07-29T01:11:21.559Z,96069.00
2022-07-29T01:11:31.566Z,96067.00
2022-07-29T01:11:41.549Z,96071.00
2022-07-29T01:11:52.998Z,96071.00
2022-07-29T01:12:01.561Z,96071.00
2022-07-29T01:12:11.559Z,96067.00
2022-07-29T01:12:21.557Z,96069.00
2022-07-29T01:12:31.559Z,96069.00
2022-07-29T01:12:41.560Z,96069.00
2022-07-29T01:12:51.559Z,96069.00
2022-07-29T01:13:01.561Z,96067.00
2022-07-29T01:13:11.590Z,96071.00
2022-07-29T01:13:21.550Z,96069.00
2022-07-29T01:13:31.580Z,96067.00
2022-07-29T01:13:41.550Z,96069.00
2022-07-29T01:13:51.551Z,96073.00
2022-07-29T01:14:01.554Z,96069.00
2022-07-29T01:14:11.641Z,96069.00
2022-07-29T01:14:21.591Z,96071.00
2022-07-29T01:14:31.552Z,96071.00
2022-07-29T01:14:41.550Z,96075.00
2022-07-29T01:14:51.560Z,96077.00
2022-07-29T01:15:01.566Z,96079.00
2022-07-29T01:15:11.541Z,96075.00
2022-07-29T01:15:21.590Z,96081.00
2022-07-29T01:15:31.543Z,96081.00
2022-07-29T01:15:41.549Z,96083.00
2022-07-29T01:15:51.638Z,96083.00
2022-07-29T01:16:01.566Z,96083.00
2022-07-29T01:16:11.603Z,96083.00
2022-07-29T01:16:21.608Z,96085.00
2022-07-29T01:16:31.593Z,96085.00
2022-07-29T01:16:41.628Z,96085.00
2022-07-29T01:16:51.542Z,96091.00
2022-07-29T01:17:01.569Z,96091.00
2022-07-29T01:17:11.551Z,96094.00
2022-07-29T01:17:21.541Z,96091.00
2022-07-29T01:17:31.537Z,96089.00
2022-07-29T01:17:41.541Z,96089.00
2022-07-29T01:17:53.576Z,96091.00
2022-07-29T01:18:01.646Z,96091.00
2022-07-29T01:18:11.592Z,96091.00
2022-07-29T01:18:22.145Z,96092.00
2022-07-29T01:18:31.602Z,96092.00
2022-07-29T01:18:41.645Z,96091.00
2022-07-29T01:18:51.600Z,96092.00
2022-07-29T01:19:01.595Z,96089.00
2022-07-29T01:19:11.595Z,96091.00
2022-07-29T01:19:21.592Z,96089.00
2022-07-29T01:19:31.613Z,96089.00
2022-07-29T01:19:41.592Z,96089.00
2022-07-29T01:19:51.604Z,96089.00
2022-07-29T01:20:01.592Z,96087.00
2022-07-29T01:20:11.595Z,96085.00
2022-07-29T01:20:21.602Z,96085.00
2022-07-29T01:20:32.109Z,96085.00
2022-07-29T01:20:41.602Z,96083.00
2022-07-29T01:20:53.042Z,96081.00
2022-07-29T01:21:01.593Z,96081.00
2022-07-29T01:21:11.590Z,96081.00
2022-07-29T01:21:21.596Z,96079.00
2022-07-29T01:21:31.593Z,96081.00
2022-07-29T01:21:42.339Z,96081.00
2022-07-29T01:21:51.594Z,96077.00
2022-07-29T01:22:01.593Z,96079.00
2022-07-29T01:22:11.583Z,96077.00
2022-07-29T01:22:21.584Z,96077.00
2022-07-29T01:22:31.584Z,96077.00
2022-07-29T01:22:41.584Z,96079.00
2022-07-29T01:22:51.586Z,96079.00
2022-07-29T01:23:01.586Z,96077.00
2022-07-29T01:23:11.584Z,96079.00
2022-07-29T01:23:21.576Z,96077.00
2022-07-29T01:23:31.642Z,96079.00
2022-07-29T01:23:41.593Z,96077.00
2022-07-29T01:23:51.605Z,96079.00
2022-07-29T01:24:01.589Z,96081.00
2022-07-29T01:24:11.584Z,96077.00
2022-07-29T01:24:21.591Z,96079.00
2022-07-29T01:24:31.586Z,96079.00
2022-07-29T01:24:41.596Z,96079.00
2022-07-29T01:24:51.585Z,96077.00
2022-07-29T01:25:01.586Z,96079.00
2022-07-29T01:25:11.584Z,96081.00
2022-07-29T01:25:21.578Z,96077.00
2022-07-29T01:25:31.583Z,96079.00
2022-07-29T01:25:41.767Z,96077.00
2022-07-29T01:25:55.771Z,96081.00
2022-07-29T01:26:01.579Z,96077.00
2022-07-29T01:26:11.574Z,96079.00
2022-07-29T01:26:21.575Z,96079.00
2022-07-29T01:26:32.480Z,96079.00
2022-07-29T01:26:41.575Z,96077.00
2022-07-29T01:26:51.577Z,96079.00
2022-07-29T01:27:01.576Z,96077.00
2022-07-29T01:27:11.575Z,96077.00
2022-07-29T01:27:21.573Z,96075.00
2022-07-29T01:27:31.579Z,96075.00
2022-07-29T01:27:41.783Z,96075.00
2022-07-29T01:27:51.577Z,96073.00
2022-07-29T01:28:01.575Z,96073.00
2022-07-29T01:28:11.759Z,96075.00
2022-07-29T01:28:21.566Z,96071.00
2022-07-29T01:28:31.576Z,96071.00
2022-07-29T01:28:41.566Z,96073.00
2022-07-29T01:28:51.617Z,96069.00
2022-07-29T01:29:02.483Z,96067.00
2022-07-29T01:29:11.566Z,96069.00
2022-07-29T01:29:21.566Z,96069.00
2022-07-29T01:29:38.744Z,96071.00
2022-07-29T01:29:41.566Z,96067.00
2022-07-29T01:29:51.586Z,96067.00
2022-07-29T01:30:01.573Z,96069.00
2022-07-29T01:30:11.596Z,96063.00
2022-07-29T01:30:21.568Z,96061.00
2022-07-29T01:30:31.825Z,96065.00
2022-07-29T01:30:41.836Z,96063.00
2022-07-29T01:30:51.848Z,96063.00
2022-07-29T01:31:01.879Z,96061.00
2022-07-29T01:31:11.919Z,96061.00
2022-07-29T01:31:25.325Z,96061.00
2022-07-29T01:31:31.887Z,96057.00
2022-07-29T01:31:47.449Z,96059.00
2022-07-29T01:31:59.207Z,96057.00
2022-07-29T01:32:01.873Z,96057.00
2022-07-29T01:32:27.918Z,96059.00
2022-07-29T01:32:28.400Z,96057.00
2022-07-29T01:32:31.843Z,96057.00
2022-07-29T01:32:41.811Z,96061.00
2022-07-29T01:32:51.808Z,96059.00
2022-07-29T01:33:01.797Z,96059.00
2022-07-29T01:33:11.798Z,96059.00
2022-07-29T01:33:21.797Z,96059.00
2022-07-29T01:33:31.798Z,96061.00
2022-07-29T01:33:41.800Z,96061.00
2022-07-29T01:33:51.799Z,96061.00
2022-07-29T01:34:01.801Z,96061.00
2022-07-29T01:34:11.828Z,96063.00
2022-07-29T01:34:21.790Z,96063.00
2022-07-29T01:34:31.800Z,96061.00
2022-07-29T01:34:41.800Z,96063.00
2022-07-29T01:34:51.789Z,96063.00
2022-07-29T01:35:01.812Z,96063.00
2022-07-29T01:35:11.842Z,96065.00
2022-07-29T01:35:21.799Z,96063.00
2022-07-29T01:35:31.789Z,96063.00
2022-07-29T01:35:41.791Z,96065.00
2022-07-29T01:35:51.790Z,96063.00
2022-07-29T01:36:01.790Z,96065.00
2022-07-29T01:36:11.788Z,96065.00
2022-07-29T01:36:21.789Z,96063.00
2022-07-29T01:36:31.791Z,96065.00
2022-07-29T01:36:41.781Z,96063.00
2022-07-29T01:36:51.809Z,96065.00
2022-07-29T01:37:01.811Z,96063.00
2022-07-29T01:37:11.800Z,96063.00
2022-07-29T01:37:21.782Z,96063.00
2022-07-29T01:37:31.790Z,96063.00
2022-07-29T01:37:41.789Z,96061.00
2022-07-29T01:37:51.789Z,96063.00
2022-07-29T01:38:01.780Z,96065.00
2022-07-29T01:38:11.780Z,96063.00
2022-07-29T01:38:21.784Z,96063.00
2022-07-29T01:38:31.781Z,96061.00
2022-07-29T01:38:41.781Z,96063.00
2022-07-29T01:38:51.779Z,96063.00
2022-07-29T01:39:01.781Z,96063.00
2022-07-29T01:39:11.782Z,96061.00
2022-07-29T01:39:21.801Z,96063.00
2022-07-29T01:39:31.781Z,96063.00
2022-07-29T01:39:41.782Z,96063.00
2022-07-29T01:39:51.781Z,96065.00
2022-07-29T01:40:01.861Z,96065.00
2022-07-29T01:40:11.831Z,96065.00
2022-07-29T01:40:21.774Z,96063.00
2022-07-29T01:40:31.773Z,96065.00
2022-07-29T01:40:41.833Z,96065.00
2022-07-29T01:40:51.861Z,96065.00
2022-07-29T01:41:01.788Z,96065.00
2022-07-29T01:41:11.783Z,96063.00
2022-07-29T01:41:21.781Z,96063.00
2022-07-29T01:41:31.795Z,96065.00
2022-07-29T01:41:41.800Z,96063.00
2022-07-29T01:41:53.213Z,96063.00
2022-07-29T01:42:01.772Z,96063.00
2022-07-29T01:42:11.772Z,96063.00
2022-07-29T01:42:21.767Z,96065.00
2022-07-29T01:42:31.771Z,96065.00
2022-07-29T01:42:41.773Z,96063.00
2022-07-29T01:42:51.772Z,96065.00
2022-07-29T01:43:01.772Z,96067.00
2022-07-29T01:43:11.765Z,96065.00
2022-07-29T01:43:21.773Z,96067.00
2022-07-29T01:43:31.775Z,96065.00
2022-07-29T01:43:41.779Z,96065.00
2022-07-29T01:43:51.806Z,96065.00
2022-07-29T01:44:01.762Z,96065.00
2022-07-29T01:44:11.782Z,96065.00
2022-07-29T01:44:21.783Z,96063.00
2022-07-29T01:44:31.768Z,96069.00
2022-07-29T01:44:41.764Z,96063.00
2022-07-29T01:44:51.765Z,96061.00
2022-07-29T01:45:01.777Z,96061.00
2022-07-29T01:45:11.752Z,96063.00
2022-07-29T01:45:21.796Z,96063.00
2022-07-29T01:45:31.765Z,96063.00
2022-07-29T01:45:41.774Z,96061.00
2022-07-29T01:45:51.768Z,96061.00
2022-07-29T01:46:01.759Z,96063.00
2022-07-29T01:46:11.811Z,96063.00
2022-07-29T01:46:21.823Z,96061.00
2022-07-29T01:46:31.823Z,96065.00
2022-07-29T01:46:41.768Z,96063.00
2022-07-29T01:46:51.876Z,96063.00
2022-07-29T01:47:01.807Z,96063.00
2022-07-29T01:47:11.754Z,96063.00
2022-07-29T01:47:21.759Z,96063.00
2022-07-29T01:47:33.192Z,96059.00
2022-07-29T01:47:43.197Z,96059.00
2022-07-29T01:47:51.762Z,96061.00
2022-07-29T01:48:01.778Z,96059.00
2022-07-29T01:48:11.745Z,96061.00
2022-07-29T01:48:21.745Z,96059.00
2022-07-29T01:48:33.185Z,96057.00
2022-07-29T01:48:41.789Z,96057.00
2022-07-29T01:48:51.831Z,96059.00
2022-07-29T01:49:01.753Z,96057.00
2022-07-29T01:49:13.257Z,96057.00
2022-07-29T01:49:21.857Z,96057.00
2022-07-29T01:49:31.777Z,96057.00
2022-07-29T01:49:41.744Z,96057.00
2022-07-29T01:49:51.754Z,96059.00
2022-07-29T01:50:01.745Z,96057.00
2022-07-29T01:50:11.756Z,96057.00
2022-07-29T01:50:21.745Z,96057.00
2022-07-29T01:50:31.798Z,96055.00
2022-07-29T01:50:41.746Z,96053.00
2022-07-29T01:50:51.876Z,96057.00
2022-07-29T01:51:01.747Z,96055.00
2022-07-29T01:51:11.746Z,96057.00
2022-07-29T01:51:21.745Z,96057.00
2022-07-29T01:51:31.747Z,96055.00
2022-07-29T01:51:41.737Z,96057.00
2022-07-29T01:51:51.736Z,96059.00
2022-07-29T01:52:01.737Z,96055.00
2022-07-29T01:52:11.747Z,96055.00
2022-07-29T01:52:21.745Z,96057.00
2022-07-29T01:52:31.736Z,96057.00
2022-07-29T01:52:41.745Z,96057.00
2022-07-29T01:52:51.780Z,96057.00
2022-07-29T01:53:01.765Z,96057.00
2022-07-29T01:53:11.756Z,96055.00
2022-07-29T01:53:21.736Z,96057.00
2022-07-29T01:53:37.830Z,96057.00
2022-07-29T01:53:41.727Z,96059.00
2022-07-29T01:53:51.735Z,96057.00
2022-07-29T01:54:01.728Z,96055.00
2022-07-29T01:54:11.727Z,96055.00
2022-07-29T01:54:21.736Z,96055.00
2022-07-29T01:54:31.739Z,96055.00
2022-07-29T01:54:41.757Z,96055.00
2022-07-29T01:54:51.742Z,96055.00
2022-07-29T01:55:03.166Z,96055.00
2022-07-29T01:55:11.728Z,96051.00
2022-07-29T01:55:21.731Z,96053.00
2022-07-29T01:55:31.729Z,96051.00
2022-07-29T01:55:41.746Z,96051.00
2022-07-29T01:55:51.728Z,96051.00
2022-07-29T01:56:01.728Z,96049.00
2022-07-29T01:56:11.718Z,96049.00
2022-07-29T01:56:21.730Z,96049.00
2022-07-29T01:56:31.719Z,96049.00
2022-07-29T01:56:41.718Z,96051.00
2022-07-29T01:56:51.730Z,96049.00
2022-07-29T01:57:01.727Z,96051.00
2022-07-29T01:57:11.734Z,96049.00
2022-07-29T01:57:21.709Z,96049.00